sensor_id;sensor_type;location;lat;lon;timestamp;P1;durP1;ratioP1;P2;durP2;ratioP2
68821;SDS011;55834;50.870;4.606;2023-09-12T00:00:45;18.00;;;10.50;;
68821;SDS011;55834;50.870;4.606;2023-09-12T00:03:11;12.82;;;7.50;;
68821;SDS011;55834;50.870;4.606;2023-09-12T00:05:36;7.63;;;5.80;;
68821;SDS011;55834;50.870;4.606;2023-09-12T00:08:02;8.15;;;5.45;;
68821;SDS011;55834;50.870;4.606;2023-09-12T00:10:28;9.30;;;6.90;;
68821;SDS011;55834;50.870;4.606;2023-09-12T00:12:55;7.72;;;5.78;;
68821;SDS011;55834;50.870;4.606;2023-09-12T00:15:20;8.93;;;6.22;;
68821;SDS011;55834;50.870;4.606;2023-09-12T00:17:46;9.27;;;5.13;;
68821;SDS011;55834;50.870;4.606;2023-09-12T00:20:13;8.30;;;5.32;;
68821;SDS011;55834;50.870;4.606;2023-09-12T00:22:39;9.73;;;6.30;;
68821;SDS011;55834;50.870;4.606;2023-09-12T00:25:04;6.60;;;4.88;;
68821;SDS011;55834;50.870;4.606;2023-09-12T00:27:31;8.27;;;6.93;;
68821;SDS011;55834;50.870;4.606;2023-09-12T00:29:57;13.35;;;8.05;;
68821;SDS011;55834;50.870;4.606;2023-09-12T00:32:22;12.27;;;6.83;;
68821;SDS011;55834;50.870;4.606;2023-09-12T00:34:47;9.65;;;6.70;;
68821;SDS011;55834;50.870;4.606;2023-09-12T00:37:13;7.77;;;5.67;;
68821;SDS011;55834;50.870;4.606;2023-09-12T00:39:38;5.70;;;4.47;;
68821;SDS011;55834;50.870;4.606;2023-09-12T00:42:04;6.00;;;4.93;;
68821;SDS011;55834;50.870;4.606;2023-09-12T00:44:30;10.73;;;6.50;;
68821;SDS011;55834;50.870;4.606;2023-09-12T00:46:55;11.27;;;7.80;;
68821;SDS011;55834;50.870;4.606;2023-09-12T00:49:22;12.48;;;7.95;;
68821;SDS011;55834;50.870;4.606;2023-09-12T00:51:48;12.43;;;8.93;;
68821;SDS011;55834;50.870;4.606;2023-09-12T00:54:15;10.55;;;6.22;;
68821;SDS011;55834;50.870;4.606;2023-09-12T00:56:41;9.30;;;6.18;;
68821;SDS011;55834;50.870;4.606;2023-09-12T00:59:07;14.20;;;7.95;;
68821;SDS011;55834;50.870;4.606;2023-09-12T01:01:35;12.18;;;8.40;;
68821;SDS011;55834;50.870;4.606;2023-09-12T01:04:00;9.13;;;6.57;;
68821;SDS011;55834;50.870;4.606;2023-09-12T01:06:27;7.65;;;5.55;;
68821;SDS011;55834;50.870;4.606;2023-09-12T01:08:55;6.78;;;5.68;;
68821;SDS011;55834;50.870;4.606;2023-09-12T01:11:20;8.43;;;5.78;;
68821;SDS011;55834;50.870;4.606;2023-09-12T01:13:47;6.90;;;5.25;;
68821;SDS011;55834;50.870;4.606;2023-09-12T01:16:12;5.57;;;4.25;;
68821;SDS011;55834;50.870;4.606;2023-09-12T01:18:38;5.87;;;4.57;;
68821;SDS011;55834;50.870;4.606;2023-09-12T01:23:43;8.48;;;5.55;;
68821;SDS011;55834;50.870;4.606;2023-09-12T01:29:06;7.97;;;5.22;;
68821;SDS011;55834;50.870;4.606;2023-09-12T01:31:32;10.73;;;5.85;;
68821;SDS011;55834;50.870;4.606;2023-09-12T01:34:10;13.43;;;7.05;;
68821;SDS011;55834;50.870;4.606;2023-09-12T01:36:36;10.93;;;7.40;;
68821;SDS011;55834;50.870;4.606;2023-09-12T01:39:02;7.90;;;5.28;;
68821;SDS011;55834;50.870;4.606;2023-09-12T01:41:27;7.55;;;4.90;;
68821;SDS011;55834;50.870;4.606;2023-09-12T01:43:56;10.57;;;7.13;;
68821;SDS011;55834;50.870;4.606;2023-09-12T01:46:22;11.05;;;7.25;;
68821;SDS011;55834;50.870;4.606;2023-09-12T01:48:50;8.80;;;6.22;;
68821;SDS011;55834;50.870;4.606;2023-09-12T01:51:18;13.43;;;7.90;;
68821;SDS011;55834;50.870;4.606;2023-09-12T01:53:45;14.18;;;8.57;;
68821;SDS011;55834;50.870;4.606;2023-09-12T01:56:12;9.82;;;6.78;;
68821;SDS011;55834;50.870;4.606;2023-09-12T01:58:50;10.85;;;6.45;;
68821;SDS011;55834;50.870;4.606;2023-09-12T02:01:15;8.75;;;6.03;;
68821;SDS011;55834;50.870;4.606;2023-09-12T02:03:41;8.50;;;5.97;;
68821;SDS011;55834;50.870;4.606;2023-09-12T02:06:06;7.30;;;5.30;;
68821;SDS011;55834;50.870;4.606;2023-09-12T02:08:32;8.75;;;5.68;;
68821;SDS011;55834;50.870;4.606;2023-09-12T02:10:57;11.73;;;6.40;;
68821;SDS011;55834;50.870;4.606;2023-09-12T02:13:22;7.77;;;5.47;;
68821;SDS011;55834;50.870;4.606;2023-09-12T02:15:48;8.93;;;7.07;;
68821;SDS011;55834;50.870;4.606;2023-09-12T02:18:13;15.40;;;9.27;;
68821;SDS011;55834;50.870;4.606;2023-09-12T02:20:39;14.10;;;9.70;;
68821;SDS011;55834;50.870;4.606;2023-09-12T02:23:06;8.10;;;5.68;;
68821;SDS011;55834;50.870;4.606;2023-09-12T02:25:31;11.18;;;6.68;;
68821;SDS011;55834;50.870;4.606;2023-09-12T02:27:57;10.27;;;6.37;;
68821;SDS011;55834;50.870;4.606;2023-09-12T02:30:22;9.87;;;7.07;;
68821;SDS011;55834;50.870;4.606;2023-09-12T02:32:47;13.07;;;7.07;;
68821;SDS011;55834;50.870;4.606;2023-09-12T02:35:13;11.97;;;7.60;;
68821;SDS011;55834;50.870;4.606;2023-09-12T02:37:38;16.20;;;10.32;;
68821;SDS011;55834;50.870;4.606;2023-09-12T02:40:04;17.60;;;10.97;;
68821;SDS011;55834;50.870;4.606;2023-09-12T02:42:36;14.98;;;7.72;;
68821;SDS011;55834;50.870;4.606;2023-09-12T02:45:01;11.48;;;6.18;;
68821;SDS011;55834;50.870;4.606;2023-09-12T02:47:27;8.55;;;5.97;;
68821;SDS011;55834;50.870;4.606;2023-09-12T02:49:52;11.70;;;6.90;;
68821;SDS011;55834;50.870;4.606;2023-09-12T02:52:17;11.47;;;7.00;;
68821;SDS011;55834;50.870;4.606;2023-09-12T02:54:43;14.87;;;9.30;;
68821;SDS011;55834;50.870;4.606;2023-09-12T02:57:08;10.77;;;6.35;;
68821;SDS011;55834;50.870;4.606;2023-09-12T02:59:34;10.40;;;6.70;;
68821;SDS011;55834;50.870;4.606;2023-09-12T03:01:59;18.40;;;9.77;;
68821;SDS011;55834;50.870;4.606;2023-09-12T03:04:25;17.88;;;9.00;;
68821;SDS011;55834;50.870;4.606;2023-09-12T03:06:53;18.20;;;12.18;;
68821;SDS011;55834;50.870;4.606;2023-09-12T03:09:18;18.27;;;12.23;;
68821;SDS011;55834;50.870;4.606;2023-09-12T03:11:44;17.15;;;10.75;;
68821;SDS011;55834;50.870;4.606;2023-09-12T03:14:10;20.60;;;11.52;;
68821;SDS011;55834;50.870;4.606;2023-09-12T03:16:35;16.27;;;9.43;;
68821;SDS011;55834;50.870;4.606;2023-09-12T03:19:01;12.20;;;8.68;;
68821;SDS011;55834;50.870;4.606;2023-09-12T03:21:28;18.25;;;10.93;;
68821;SDS011;55834;50.870;4.606;2023-09-12T03:23:53;19.13;;;10.40;;
68821;SDS011;55834;50.870;4.606;2023-09-12T03:26:18;17.17;;;10.13;;
68821;SDS011;55834;50.870;4.606;2023-09-12T03:28:44;11.45;;;7.63;;
68821;SDS011;55834;50.870;4.606;2023-09-12T03:31:10;15.77;;;8.87;;
68821;SDS011;55834;50.870;4.606;2023-09-12T03:33:37;12.73;;;8.18;;
68821;SDS011;55834;50.870;4.606;2023-09-12T03:36:03;12.85;;;7.70;;
68821;SDS011;55834;50.870;4.606;2023-09-12T03:38:30;12.95;;;7.75;;
68821;SDS011;55834;50.870;4.606;2023-09-12T03:40:55;19.25;;;10.93;;
68821;SDS011;55834;50.870;4.606;2023-09-12T03:43:21;18.70;;;11.77;;
68821;SDS011;55834;50.870;4.606;2023-09-12T03:45:46;21.58;;;13.55;;
68821;SDS011;55834;50.870;4.606;2023-09-12T03:48:11;20.77;;;12.33;;
68821;SDS011;55834;50.870;4.606;2023-09-12T03:50:37;18.97;;;11.97;;
68821;SDS011;55834;50.870;4.606;2023-09-12T03:53:02;22.53;;;12.80;;
68821;SDS011;55834;50.870;4.606;2023-09-12T03:55:28;24.42;;;14.23;;
68821;SDS011;55834;50.870;4.606;2023-09-12T03:57:53;24.20;;;13.95;;
68821;SDS011;55834;50.870;4.606;2023-09-12T04:00:18;23.47;;;15.30;;
68821;SDS011;55834;50.870;4.606;2023-09-12T04:02:44;23.02;;;13.68;;
68821;SDS011;55834;50.870;4.606;2023-09-12T04:05:09;27.88;;;15.65;;
68821;SDS011;55834;50.870;4.606;2023-09-12T04:07:35;31.00;;;16.45;;
68821;SDS011;55834;50.870;4.606;2023-09-12T04:10:01;28.27;;;17.75;;
68821;SDS011;55834;50.870;4.606;2023-09-12T04:12:26;21.58;;;15.20;;
68821;SDS011;55834;50.870;4.606;2023-09-12T04:14:51;31.97;;;16.83;;
68821;SDS011;55834;50.870;4.606;2023-09-12T04:17:17;24.23;;;14.73;;
68821;SDS011;55834;50.870;4.606;2023-09-12T04:19:43;24.25;;;14.88;;
68821;SDS011;55834;50.870;4.606;2023-09-12T04:22:08;23.70;;;14.53;;
68821;SDS011;55834;50.870;4.606;2023-09-12T04:24:33;19.92;;;12.32;;
68821;SDS011;55834;50.870;4.606;2023-09-12T04:26:59;26.00;;;14.13;;
68821;SDS011;55834;50.870;4.606;2023-09-12T04:29:24;17.90;;;11.57;;
68821;SDS011;55834;50.870;4.606;2023-09-12T04:31:49;25.25;;;14.30;;
68821;SDS011;55834;50.870;4.606;2023-09-12T04:34:17;23.02;;;14.48;;
68821;SDS011;55834;50.870;4.606;2023-09-12T04:36:43;16.60;;;10.15;;
68821;SDS011;55834;50.870;4.606;2023-09-12T04:39:09;18.33;;;10.60;;
68821;SDS011;55834;50.870;4.606;2023-09-12T04:41:34;15.88;;;11.23;;
68821;SDS011;55834;50.870;4.606;2023-09-12T04:43:59;16.10;;;10.15;;
68821;SDS011;55834;50.870;4.606;2023-09-12T04:46:27;24.77;;;13.15;;
68821;SDS011;55834;50.870;4.606;2023-09-12T04:48:52;16.00;;;10.77;;
68821;SDS011;55834;50.870;4.606;2023-09-12T04:51:18;20.63;;;11.10;;
68821;SDS011;55834;50.870;4.606;2023-09-12T04:53:43;20.20;;;12.70;;
68821;SDS011;55834;50.870;4.606;2023-09-12T04:56:09;25.30;;;13.75;;
68821;SDS011;55834;50.870;4.606;2023-09-12T04:58:35;26.23;;;16.10;;
68821;SDS011;55834;50.870;4.606;2023-09-12T05:01:00;22.77;;;13.25;;
68821;SDS011;55834;50.870;4.606;2023-09-12T05:03:25;21.90;;;12.97;;
68821;SDS011;55834;50.870;4.606;2023-09-12T05:05:51;23.35;;;13.60;;
68821;SDS011;55834;50.870;4.606;2023-09-12T05:08:17;29.30;;;18.20;;
68821;SDS011;55834;50.870;4.606;2023-09-12T05:10:46;28.70;;;15.65;;
68821;SDS011;55834;50.870;4.606;2023-09-12T05:13:12;30.02;;;14.35;;
68821;SDS011;55834;50.870;4.606;2023-09-12T05:15:38;21.05;;;11.90;;
68821;SDS011;55834;50.870;4.606;2023-09-12T05:18:05;28.77;;;14.57;;
68821;SDS011;55834;50.870;4.606;2023-09-12T05:20:31;15.77;;;11.18;;
68821;SDS011;55834;50.870;4.606;2023-09-12T05:22:57;18.63;;;10.65;;
68821;SDS011;55834;50.870;4.606;2023-09-12T05:25:22;15.87;;;10.50;;
68821;SDS011;55834;50.870;4.606;2023-09-12T05:27:48;19.10;;;11.07;;
68821;SDS011;55834;50.870;4.606;2023-09-12T05:30:13;13.87;;;9.20;;
68821;SDS011;55834;50.870;4.606;2023-09-12T05:32:40;17.30;;;10.07;;
68821;SDS011;55834;50.870;4.606;2023-09-12T05:35:06;26.75;;;14.93;;
68821;SDS011;55834;50.870;4.606;2023-09-12T05:37:32;17.35;;;11.00;;
68821;SDS011;55834;50.870;4.606;2023-09-12T05:39:57;22.53;;;11.40;;
68821;SDS011;55834;50.870;4.606;2023-09-12T05:42:22;20.70;;;12.90;;
68821;SDS011;55834;50.870;4.606;2023-09-12T05:44:48;21.40;;;13.95;;
68821;SDS011;55834;50.870;4.606;2023-09-12T05:47:15;19.05;;;10.18;;
68821;SDS011;55834;50.870;4.606;2023-09-12T05:49:40;13.23;;;9.32;;
68821;SDS011;55834;50.870;4.606;2023-09-12T05:52:06;15.10;;;9.27;;
68821;SDS011;55834;50.870;4.606;2023-09-12T05:54:32;11.07;;;8.25;;
68821;SDS011;55834;50.870;4.606;2023-09-12T05:56:57;12.43;;;7.97;;
68821;SDS011;55834;50.870;4.606;2023-09-12T05:59:22;13.70;;;8.35;;
68821;SDS011;55834;50.870;4.606;2023-09-12T06:01:48;12.68;;;8.70;;
68821;SDS011;55834;50.870;4.606;2023-09-12T06:04:14;18.55;;;10.70;;
68821;SDS011;55834;50.870;4.606;2023-09-12T06:06:39;15.15;;;9.57;;
68821;SDS011;55834;50.870;4.606;2023-09-12T06:09:05;21.63;;;11.80;;
68821;SDS011;55834;50.870;4.606;2023-09-12T06:11:31;21.38;;;13.95;;
68821;SDS011;55834;50.870;4.606;2023-09-12T06:13:56;15.80;;;11.03;;
68821;SDS011;55834;50.870;4.606;2023-09-12T06:16:22;21.20;;;11.23;;
68821;SDS011;55834;50.870;4.606;2023-09-12T06:18:47;14.63;;;10.63;;
68821;SDS011;55834;50.870;4.606;2023-09-12T06:21:13;19.20;;;13.35;;
68821;SDS011;55834;50.870;4.606;2023-09-12T06:23:39;24.52;;;13.68;;
68821;SDS011;55834;50.870;4.606;2023-09-12T06:26:04;15.73;;;10.43;;
68821;SDS011;55834;50.870;4.606;2023-09-12T06:28:30;16.37;;;10.97;;
68821;SDS011;55834;50.870;4.606;2023-09-12T06:30:56;16.13;;;8.68;;
68821;SDS011;55834;50.870;4.606;2023-09-12T06:33:23;15.10;;;9.50;;
68821;SDS011;55834;50.870;4.606;2023-09-12T06:35:49;12.52;;;7.53;;
68821;SDS011;55834;50.870;4.606;2023-09-12T06:38:17;12.35;;;8.63;;
68821;SDS011;55834;50.870;4.606;2023-09-12T06:40:47;13.48;;;8.45;;
68821;SDS011;55834;50.870;4.606;2023-09-12T06:43:13;14.07;;;8.93;;
68821;SDS011;55834;50.870;4.606;2023-09-12T06:45:42;24.52;;;13.85;;
68821;SDS011;55834;50.870;4.606;2023-09-12T06:48:07;17.35;;;10.27;;
68821;SDS011;55834;50.870;4.606;2023-09-12T06:50:33;25.35;;;15.18;;
68821;SDS011;55834;50.870;4.606;2023-09-12T06:52:59;28.00;;;14.07;;
68821;SDS011;55834;50.870;4.606;2023-09-12T06:55:24;26.30;;;15.23;;
68821;SDS011;55834;50.870;4.606;2023-09-12T06:57:50;20.27;;;11.57;;
68821;SDS011;55834;50.870;4.606;2023-09-12T07:00:15;26.88;;;15.13;;
68821;SDS011;55834;50.870;4.606;2023-09-12T07:02:41;24.05;;;13.63;;
68821;SDS011;55834;50.870;4.606;2023-09-12T07:05:07;28.25;;;14.18;;
68821;SDS011;55834;50.870;4.606;2023-09-12T07:07:32;23.90;;;14.00;;
68821;SDS011;55834;50.870;4.606;2023-09-12T07:09:58;22.95;;;12.48;;
68821;SDS011;55834;50.870;4.606;2023-09-12T07:12:24;20.20;;;11.93;;
68821;SDS011;55834;50.870;4.606;2023-09-12T07:14:50;20.15;;;12.50;;
68821;SDS011;55834;50.870;4.606;2023-09-12T07:17:16;29.40;;;14.23;;
68821;SDS011;55834;50.870;4.606;2023-09-12T07:19:42;23.10;;;14.25;;
68821;SDS011;55834;50.870;4.606;2023-09-12T07:22:08;19.67;;;11.00;;
68821;SDS011;55834;50.870;4.606;2023-09-12T07:24:33;14.05;;;9.32;;
68821;SDS011;55834;50.870;4.606;2023-09-12T07:26:59;18.52;;;9.50;;
68821;SDS011;55834;50.870;4.606;2023-09-12T07:29:24;13.63;;;8.63;;
68821;SDS011;55834;50.870;4.606;2023-09-12T07:31:53;13.90;;;9.20;;
68821;SDS011;55834;50.870;4.606;2023-09-12T07:34:19;18.13;;;10.75;;
68821;SDS011;55834;50.870;4.606;2023-09-12T07:36:45;21.65;;;12.00;;
68821;SDS011;55834;50.870;4.606;2023-09-12T07:39:11;22.48;;;12.60;;
68821;SDS011;55834;50.870;4.606;2023-09-12T07:41:36;15.35;;;9.60;;
68821;SDS011;55834;50.870;4.606;2023-09-12T07:44:02;17.10;;;10.57;;
68821;SDS011;55834;50.870;4.606;2023-09-12T07:46:29;21.67;;;12.52;;
68821;SDS011;55834;50.870;4.606;2023-09-12T07:48:57;23.77;;;13.00;;
68821;SDS011;55834;50.870;4.606;2023-09-12T07:51:23;28.67;;;15.98;;
68821;SDS011;55834;50.870;4.606;2023-09-12T07:53:49;24.10;;;14.57;;
68821;SDS011;55834;50.870;4.606;2023-09-12T07:56:14;25.98;;;15.70;;
68821;SDS011;55834;50.870;4.606;2023-09-12T07:58:40;21.73;;;13.05;;
68821;SDS011;55834;50.870;4.606;2023-09-12T08:01:06;22.70;;;12.73;;
68821;SDS011;55834;50.870;4.606;2023-09-12T08:03:35;29.77;;;16.67;;
68821;SDS011;55834;50.870;4.606;2023-09-12T08:06:02;24.90;;;16.38;;
68821;SDS011;55834;50.870;4.606;2023-09-12T08:10:54;23.65;;;14.32;;
68821;SDS011;55834;50.870;4.606;2023-09-12T08:13:19;28.52;;;15.63;;
68821;SDS011;55834;50.870;4.606;2023-09-12T08:15:45;18.65;;;13.55;;
68821;SDS011;55834;50.870;4.606;2023-09-12T08:18:10;22.92;;;14.93;;
68821;SDS011;55834;50.870;4.606;2023-09-12T08:20:35;27.07;;;15.83;;
68821;SDS011;55834;50.870;4.606;2023-09-12T08:23:01;30.43;;;15.80;;
68821;SDS011;55834;50.870;4.606;2023-09-12T08:25:27;29.40;;;16.35;;
68821;SDS011;55834;50.870;4.606;2023-09-12T08:27:52;26.53;;;13.00;;
68821;SDS011;55834;50.870;4.606;2023-09-12T08:30:17;15.60;;;10.63;;
68821;SDS011;55834;50.870;4.606;2023-09-12T08:32:43;20.10;;;12.18;;
68821;SDS011;55834;50.870;4.606;2023-09-12T08:35:12;23.00;;;12.82;;
68821;SDS011;55834;50.870;4.606;2023-09-12T08:37:39;17.25;;;10.32;;
68821;SDS011;55834;50.870;4.606;2023-09-12T08:40:07;17.70;;;9.88;;
68821;SDS011;55834;50.870;4.606;2023-09-12T08:42:36;16.75;;;9.68;;
68821;SDS011;55834;50.870;4.606;2023-09-12T08:45:05;14.10;;;9.10;;
68821;SDS011;55834;50.870;4.606;2023-09-12T08:47:36;16.38;;;9.15;;
68821;SDS011;55834;50.870;4.606;2023-09-12T08:50:05;17.25;;;9.60;;
68821;SDS011;55834;50.870;4.606;2023-09-12T08:52:32;12.63;;;7.18;;
68821;SDS011;55834;50.870;4.606;2023-09-12T08:54:58;14.60;;;8.45;;
68821;SDS011;55834;50.870;4.606;2023-09-12T08:57:23;16.33;;;9.10;;
68821;SDS011;55834;50.870;4.606;2023-09-12T08:59:49;10.43;;;4.68;;
68821;SDS011;55834;50.870;4.606;2023-09-12T09:02:15;10.95;;;6.40;;
68821;SDS011;55834;50.870;4.606;2023-09-12T09:04:41;10.90;;;6.68;;
68821;SDS011;55834;50.870;4.606;2023-09-12T09:07:08;11.63;;;6.50;;
68821;SDS011;55834;50.870;4.606;2023-09-12T09:09:35;10.85;;;6.20;;
68821;SDS011;55834;50.870;4.606;2023-09-12T09:12:01;7.40;;;5.70;;
68821;SDS011;55834;50.870;4.606;2023-09-12T09:14:27;15.02;;;7.72;;
68821;SDS011;55834;50.870;4.606;2023-09-12T09:16:54;9.63;;;6.50;;
68821;SDS011;55834;50.870;4.606;2023-09-12T09:19:20;8.40;;;5.20;;
68821;SDS011;55834;50.870;4.606;2023-09-12T09:21:45;10.70;;;5.43;;
68821;SDS011;55834;50.870;4.606;2023-09-12T09:24:12;8.85;;;4.93;;
68821;SDS011;55834;50.870;4.606;2023-09-12T09:26:43;8.90;;;5.55;;
68821;SDS011;55834;50.870;4.606;2023-09-12T09:29:09;11.25;;;5.93;;
68821;SDS011;55834;50.870;4.606;2023-09-12T09:31:41;9.93;;;5.35;;
68821;SDS011;55834;50.870;4.606;2023-09-12T09:34:14;10.55;;;6.95;;
68821;SDS011;55834;50.870;4.606;2023-09-12T09:36:41;6.70;;;4.03;;
68821;SDS011;55834;50.870;4.606;2023-09-12T09:39:08;6.07;;;3.30;;
68821;SDS011;55834;50.870;4.606;2023-09-12T09:41:34;9.25;;;5.53;;
68821;SDS011;55834;50.870;4.606;2023-09-12T09:43:59;40.58;;;9.98;;
68821;SDS011;55834;50.870;4.606;2023-09-12T09:46:25;12.73;;;5.88;;
68821;SDS011;55834;50.870;4.606;2023-09-12T09:48:51;6.78;;;4.35;;
68821;SDS011;55834;50.870;4.606;2023-09-12T09:51:17;9.20;;;5.05;;
68821;SDS011;55834;50.870;4.606;2023-09-12T09:53:43;9.95;;;5.28;;
68821;SDS011;55834;50.870;4.606;2023-09-12T09:56:12;12.48;;;7.28;;
68821;SDS011;55834;50.870;4.606;2023-09-12T09:59:13;8.57;;;6.35;;
68821;SDS011;55834;50.870;4.606;2023-09-12T10:01:32;10.15;;;6.28;;
68821;SDS011;55834;50.870;4.606;2023-09-12T10:04:00;9.73;;;5.63;;
68821;SDS011;55834;50.870;4.606;2023-09-12T10:06:26;9.77;;;6.32;;
68821;SDS011;55834;50.870;4.606;2023-09-12T10:11:19;8.23;;;5.47;;
68821;SDS011;55834;50.870;4.606;2023-09-12T10:13:55;9.82;;;6.90;;
68821;SDS011;55834;50.870;4.606;2023-09-12T10:17:04;12.90;;;6.70;;
68821;SDS011;55834;50.870;4.606;2023-09-12T10:19:16;9.68;;;5.95;;
68821;SDS011;55834;50.870;4.606;2023-09-12T10:24:29;7.40;;;5.30;;
68821;SDS011;55834;50.870;4.606;2023-09-12T10:26:56;6.63;;;4.85;;
68821;SDS011;55834;50.870;4.606;2023-09-12T10:29:22;8.80;;;5.20;;
68821;SDS011;55834;50.870;4.606;2023-09-12T10:31:48;11.93;;;5.68;;
68821;SDS011;55834;50.870;4.606;2023-09-12T10:34:14;7.72;;;4.93;;
68821;SDS011;55834;50.870;4.606;2023-09-12T10:36:41;8.98;;;6.45;;
68821;SDS011;55834;50.870;4.606;2023-09-12T10:39:08;5.50;;;4.45;;
68821;SDS011;55834;50.870;4.606;2023-09-12T10:41:36;8.88;;;6.68;;
68821;SDS011;55834;50.870;4.606;2023-09-12T10:44:07;12.35;;;6.38;;
68821;SDS011;55834;50.870;4.606;2023-09-12T10:46:36;7.03;;;5.47;;
68821;SDS011;55834;50.870;4.606;2023-09-12T10:49:07;11.32;;;7.13;;
68821;SDS011;55834;50.870;4.606;2023-09-12T10:51:34;11.07;;;6.57;;
68821;SDS011;55834;50.870;4.606;2023-09-12T10:54:04;11.15;;;6.40;;
68821;SDS011;55834;50.870;4.606;2023-09-12T10:56:30;9.35;;;5.65;;
68821;SDS011;55834;50.870;4.606;2023-09-12T11:01:32;6.70;;;4.55;;
68821;SDS011;55834;50.870;4.606;2023-09-12T11:06:52;7.88;;;4.85;;
68821;SDS011;55834;50.870;4.606;2023-09-12T11:11:47;6.70;;;5.00;;
68821;SDS011;55834;50.870;4.606;2023-09-12T11:14:14;8.90;;;4.97;;
68821;SDS011;55834;50.870;4.606;2023-09-12T11:16:40;4.53;;;4.00;;
68821;SDS011;55834;50.870;4.606;2023-09-12T11:21:46;5.78;;;4.15;;
68821;SDS011;55834;50.870;4.606;2023-09-12T11:24:13;6.88;;;4.82;;
68821;SDS011;55834;50.870;4.606;2023-09-12T11:32:04;7.82;;;3.90;;
68821;SDS011;55834;50.870;4.606;2023-09-12T11:37:01;4.18;;;3.78;;
68821;SDS011;55834;50.870;4.606;2023-09-12T11:39:30;6.18;;;4.53;;
68821;SDS011;55834;50.870;4.606;2023-09-12T11:41:58;6.75;;;3.58;;
68821;SDS011;55834;50.870;4.606;2023-09-12T11:44:25;5.03;;;3.60;;
68821;SDS011;55834;50.870;4.606;2023-09-12T11:46:51;7.72;;;3.72;;
68821;SDS011;55834;50.870;4.606;2023-09-12T11:49:18;6.55;;;4.32;;
68821;SDS011;55834;50.870;4.606;2023-09-12T11:51:52;5.82;;;3.67;;
68821;SDS011;55834;50.870;4.606;2023-09-12T11:54:19;6.82;;;4.05;;
68821;SDS011;55834;50.870;4.606;2023-09-12T11:56:46;10.68;;;6.45;;
68821;SDS011;55834;50.870;4.606;2023-09-12T11:59:13;8.32;;;5.65;;
68821;SDS011;55834;50.870;4.606;2023-09-12T12:01:38;8.88;;;6.15;;
68821;SDS011;55834;50.870;4.606;2023-09-12T12:04:04;6.10;;;3.97;;
68821;SDS011;55834;50.870;4.606;2023-09-12T12:06:31;10.15;;;5.78;;
68821;SDS011;55834;50.870;4.606;2023-09-12T12:08:58;7.70;;;5.95;;
68821;SDS011;55834;50.870;4.606;2023-09-12T12:11:27;12.30;;;6.70;;
68821;SDS011;55834;50.870;4.606;2023-09-12T12:13:53;11.50;;;7.50;;
68821;SDS011;55834;50.870;4.606;2023-09-12T12:16:18;11.93;;;7.70;;
68821;SDS011;55834;50.870;4.606;2023-09-12T12:18:44;10.45;;;7.65;;
68821;SDS011;55834;50.870;4.606;2023-09-12T12:21:10;13.68;;;7.03;;
68821;SDS011;55834;50.870;4.606;2023-09-12T12:23:35;10.65;;;7.50;;
68821;SDS011;55834;50.870;4.606;2023-09-12T12:26:10;9.47;;;6.73;;
68821;SDS011;55834;50.870;4.606;2023-09-12T12:28:35;10.80;;;7.45;;
68821;SDS011;55834;50.870;4.606;2023-09-12T12:31:01;11.60;;;7.50;;
68821;SDS011;55834;50.870;4.606;2023-09-12T12:33:27;9.57;;;5.90;;
68821;SDS011;55834;50.870;4.606;2023-09-12T12:36:13;10.88;;;6.35;;
68821;SDS011;55834;50.870;4.606;2023-09-12T12:38:38;15.50;;;7.95;;
68821;SDS011;55834;50.870;4.606;2023-09-12T12:41:04;9.43;;;5.72;;
68821;SDS011;55834;50.870;4.606;2023-09-12T12:43:30;12.73;;;7.75;;
68821;SDS011;55834;50.870;4.606;2023-09-12T12:45:57;8.85;;;6.13;;
68821;SDS011;55834;50.870;4.606;2023-09-12T12:48:33;10.80;;;7.28;;
68821;SDS011;55834;50.870;4.606;2023-09-12T12:51:17;10.38;;;7.10;;
68821;SDS011;55834;50.870;4.606;2023-09-12T12:53:47;8.70;;;5.80;;
68821;SDS011;55834;50.870;4.606;2023-09-12T12:56:17;6.82;;;5.40;;
68821;SDS011;55834;50.870;4.606;2023-09-12T12:59:01;8.02;;;5.70;;
68821;SDS011;55834;50.870;4.606;2023-09-12T13:01:32;10.60;;;7.85;;
68821;SDS011;55834;50.870;4.606;2023-09-12T13:03:58;8.27;;;6.30;;
68821;SDS011;55834;50.870;4.606;2023-09-12T13:06:24;10.25;;;6.10;;
68821;SDS011;55834;50.870;4.606;2023-09-12T13:08:51;9.73;;;5.78;;
68821;SDS011;55834;50.870;4.606;2023-09-12T13:11:16;6.55;;;4.97;;
68821;SDS011;55834;50.870;4.606;2023-09-12T13:13:42;9.77;;;6.43;;
68821;SDS011;55834;50.870;4.606;2023-09-12T13:16:08;12.43;;;7.32;;
68821;SDS011;55834;50.870;4.606;2023-09-12T13:18:36;9.70;;;6.43;;
68821;SDS011;55834;50.870;4.606;2023-09-12T13:21:02;10.40;;;7.00;;
68821;SDS011;55834;50.870;4.606;2023-09-12T13:23:29;6.65;;;5.65;;
68821;SDS011;55834;50.870;4.606;2023-09-12T13:25:54;10.88;;;6.10;;
68821;SDS011;55834;50.870;4.606;2023-09-12T13:28:21;9.52;;;5.90;;
68821;SDS011;55834;50.870;4.606;2023-09-12T13:30:50;14.18;;;6.55;;
68821;SDS011;55834;50.870;4.606;2023-09-12T13:33:16;8.25;;;4.70;;
68821;SDS011;55834;50.870;4.606;2023-09-12T13:35:41;8.70;;;6.00;;
68821;SDS011;55834;50.870;4.606;2023-09-12T13:38:06;6.53;;;5.18;;
68821;SDS011;55834;50.870;4.606;2023-09-12T13:40:40;8.30;;;5.53;;
68821;SDS011;55834;50.870;4.606;2023-09-12T13:43:06;9.18;;;6.18;;
68821;SDS011;55834;50.870;4.606;2023-09-12T13:45:33;7.32;;;6.20;;
68821;SDS011;55834;50.870;4.606;2023-09-12T13:47:59;8.98;;;5.03;;
68821;SDS011;55834;50.870;4.606;2023-09-12T13:50:27;9.57;;;5.50;;
68821;SDS011;55834;50.870;4.606;2023-09-12T13:52:57;7.53;;;5.20;;
68821;SDS011;55834;50.870;4.606;2023-09-12T13:55:31;8.90;;;4.82;;
68821;SDS011;55834;50.870;4.606;2023-09-12T13:57:57;7.35;;;5.68;;
68821;SDS011;55834;50.870;4.606;2023-09-12T14:00:24;11.10;;;5.38;;
68821;SDS011;55834;50.870;4.606;2023-09-12T14:02:49;9.07;;;5.28;;
68821;SDS011;55834;50.870;4.606;2023-09-12T14:05:14;6.53;;;5.07;;
68821;SDS011;55834;50.870;4.606;2023-09-12T14:07:40;9.15;;;5.55;;
68821;SDS011;55834;50.870;4.606;2023-09-12T14:10:08;7.13;;;4.90;;
68821;SDS011;55834;50.870;4.606;2023-09-12T14:12:34;9.38;;;5.80;;
68821;SDS011;55834;50.870;4.606;2023-09-12T14:15:00;9.25;;;6.00;;
68821;SDS011;55834;50.870;4.606;2023-09-12T14:17:25;8.30;;;5.00;;
68821;SDS011;55834;50.870;4.606;2023-09-12T14:22:17;6.73;;;4.77;;
68821;SDS011;55834;50.870;4.606;2023-09-12T14:24:42;7.37;;;5.20;;
68821;SDS011;55834;50.870;4.606;2023-09-12T14:27:07;10.10;;;4.93;;
68821;SDS011;55834;50.870;4.606;2023-09-12T14:29:33;8.35;;;4.60;;
68821;SDS011;55834;50.870;4.606;2023-09-12T14:31:58;7.70;;;5.30;;
68821;SDS011;55834;50.870;4.606;2023-09-12T14:34:24;6.05;;;5.22;;
68821;SDS011;55834;50.870;4.606;2023-09-12T14:36:54;7.72;;;5.63;;
68821;SDS011;55834;50.870;4.606;2023-09-12T14:39:20;7.03;;;5.63;;
68821;SDS011;55834;50.870;4.606;2023-09-12T14:41:49;11.85;;;5.85;;
68821;SDS011;55834;50.870;4.606;2023-09-12T14:44:21;8.90;;;5.50;;
68821;SDS011;55834;50.870;4.606;2023-09-12T14:46:47;10.00;;;6.18;;
68821;SDS011;55834;50.870;4.606;2023-09-12T14:49:13;7.68;;;4.50;;
68821;SDS011;55834;50.870;4.606;2023-09-12T14:51:38;8.18;;;6.47;;
68821;SDS011;55834;50.870;4.606;2023-09-12T14:54:04;8.57;;;6.13;;
68821;SDS011;55834;50.870;4.606;2023-09-12T14:56:30;7.93;;;5.60;;
68821;SDS011;55834;50.870;4.606;2023-09-12T15:01:21;11.60;;;6.70;;
68821;SDS011;55834;50.870;4.606;2023-09-12T15:03:48;10.73;;;4.80;;
68821;SDS011;55834;50.870;4.606;2023-09-12T15:06:14;9.73;;;6.78;;
68821;SDS011;55834;50.870;4.606;2023-09-12T15:08:39;6.47;;;5.50;;